sensor_id;sensor_type;location;lat;lon;timestamp;P1;durP1;ratioP1;P2;durP2;ratioP2
22648;SDS011;11491;41.942;24.220;2022-12-08T00:00:44;86.00;;;49.97;;
22648;SDS011;11491;41.942;24.220;2022-12-08T00:03:11;70.68;;;40.97;;
22648;SDS011;11491;41.942;24.220;2022-12-08T00:05:39;65.82;;;38.83;;
22648;SDS011;11491;41.942;24.220;2022-12-08T00:08:27;60.10;;;35.78;;
22648;SDS011;11491;41.942;24.220;2022-12-08T00:11:11;49.03;;;30.23;;
22648;SDS011;11491;41.942;24.220;2022-12-08T00:13:39;57.38;;;32.75;;
22648;SDS011;11491;41.942;24.220;2022-12-08T00:16:06;62.15;;;34.65;;
22648;SDS011;11491;41.942;24.220;2022-12-08T00:18:33;54.95;;;32.58;;
22648;SDS011;11491;41.942;24.220;2022-12-08T00:21:00;54.47;;;33.00;;
22648;SDS011;11491;41.942;24.220;2022-12-08T00:23:27;76.88;;;40.30;;
22648;SDS011;11491;41.942;24.220;2022-12-08T00:25:54;57.22;;;33.40;;
22648;SDS011;11491;41.942;24.220;2022-12-08T00:28:20;47.90;;;25.67;;
22648;SDS011;11491;41.942;24.220;2022-12-08T00:30:49;52.65;;;30.00;;
22648;SDS011;11491;41.942;24.220;2022-12-08T00:33:15;51.63;;;30.42;;
22648;SDS011;11491;41.942;24.220;2022-12-08T00:35:42;86.18;;;47.15;;
22648;SDS011;11491;41.942;24.220;2022-12-08T00:38:09;59.25;;;35.00;;
22648;SDS011;11491;41.942;24.220;2022-12-08T00:40:35;84.47;;;49.63;;
22648;SDS011;11491;41.942;24.220;2022-12-08T00:43:02;87.20;;;53.38;;
22648;SDS011;11491;41.942;24.220;2022-12-08T00:45:29;78.90;;;49.15;;
22648;SDS011;11491;41.942;24.220;2022-12-08T00:47:57;71.43;;;41.95;;
22648;SDS011;11491;41.942;24.220;2022-12-08T00:50:24;55.50;;;33.05;;
22648;SDS011;11491;41.942;24.220;2022-12-08T00:52:50;74.15;;;42.40;;
22648;SDS011;11491;41.942;24.220;2022-12-08T00:55:17;60.80;;;37.85;;
22648;SDS011;11491;41.942;24.220;2022-12-08T00:57:44;54.88;;;34.45;;
22648;SDS011;11491;41.942;24.220;2022-12-08T01:00:11;50.05;;;31.35;;
22648;SDS011;11491;41.942;24.220;2022-12-08T01:02:38;44.53;;;28.75;;
22648;SDS011;11491;41.942;24.220;2022-12-08T01:05:07;44.10;;;29.27;;
22648;SDS011;11491;41.942;24.220;2022-12-08T01:07:34;56.30;;;34.22;;
22648;SDS011;11491;41.942;24.220;2022-12-08T01:10:00;65.78;;;38.67;;
22648;SDS011;11491;41.942;24.220;2022-12-08T01:12:28;62.35;;;37.20;;
22648;SDS011;11491;41.942;24.220;2022-12-08T01:14:55;52.75;;;33.20;;
22648;SDS011;11491;41.942;24.220;2022-12-08T01:17:21;71.20;;;41.83;;
22648;SDS011;11491;41.942;24.220;2022-12-08T01:19:48;64.47;;;39.67;;
22648;SDS011;11491;41.942;24.220;2022-12-08T01:22:16;70.05;;;39.85;;
22648;SDS011;11491;41.942;24.220;2022-12-08T01:24:43;65.28;;;37.15;;
22648;SDS011;11491;41.942;24.220;2022-12-08T01:27:10;51.85;;;32.15;;
22648;SDS011;11491;41.942;24.220;2022-12-08T01:29:36;39.47;;;22.88;;
22648;SDS011;11491;41.942;24.220;2022-12-08T01:32:03;33.38;;;22.02;;
22648;SDS011;11491;41.942;24.220;2022-12-08T01:34:30;48.92;;;28.33;;
22648;SDS011;11491;41.942;24.220;2022-12-08T01:36:57;42.50;;;23.70;;
22648;SDS011;11491;41.942;24.220;2022-12-08T01:39:25;28.98;;;18.77;;
22648;SDS011;11491;41.942;24.220;2022-12-08T01:41:52;24.25;;;14.25;;
22648;SDS011;11491;41.942;24.220;2022-12-08T01:47:24;22.10;;;14.73;;
22648;SDS011;11491;41.942;24.220;2022-12-08T01:49:55;23.60;;;13.50;;
22648;SDS011;11491;41.942;24.220;2022-12-08T01:52:22;29.55;;;15.98;;
22648;SDS011;11491;41.942;24.220;2022-12-08T01:54:57;34.53;;;17.80;;
22648;SDS011;11491;41.942;24.220;2022-12-08T01:57:30;28.50;;;15.90;;
22648;SDS011;11491;41.942;24.220;2022-12-08T02:00:03;24.42;;;12.88;;
22648;SDS011;11491;41.942;24.220;2022-12-08T02:02:33;20.02;;;11.65;;
22648;SDS011;11491;41.942;24.220;2022-12-08T02:05:04;23.63;;;11.70;;
22648;SDS011;11491;41.942;24.220;2022-12-08T02:07:32;17.85;;;9.63;;
22648;SDS011;11491;41.942;24.220;2022-12-08T02:10:02;22.40;;;11.38;;
22648;SDS011;11491;41.942;24.220;2022-12-08T02:12:30;18.02;;;8.98;;
22648;SDS011;11491;41.942;24.220;2022-12-08T02:14:57;19.23;;;10.02;;
22648;SDS011;11491;41.942;24.220;2022-12-08T02:17:29;17.20;;;9.43;;
22648;SDS011;11491;41.942;24.220;2022-12-08T02:20:12;18.13;;;10.88;;
22648;SDS011;11491;41.942;24.220;2022-12-08T02:22:53;30.98;;;22.77;;
22648;SDS011;11491;41.942;24.220;2022-12-08T02:25:31;26.33;;;16.58;;
22648;SDS011;11491;41.942;24.220;2022-12-08T02:28:15;24.52;;;15.48;;
22648;SDS011;11491;41.942;24.220;2022-12-08T02:31:02;31.75;;;19.25;;
22648;SDS011;11491;41.942;24.220;2022-12-08T02:33:47;23.67;;;13.52;;
22648;SDS011;11491;41.942;24.220;2022-12-08T02:36:37;18.58;;;11.90;;
22648;SDS011;11491;41.942;24.220;2022-12-08T02:39:16;18.15;;;11.25;;
22648;SDS011;11491;41.942;24.220;2022-12-08T02:41:51;23.10;;;11.82;;
22648;SDS011;11491;41.942;24.220;2022-12-08T02:44:23;20.75;;;12.35;;
22648;SDS011;11491;41.942;24.220;2022-12-08T02:46:57;21.10;;;11.40;;
22648;SDS011;11491;41.942;24.220;2022-12-08T02:49:29;19.60;;;10.68;;
22648;SDS011;11491;41.942;24.220;2022-12-08T02:52:07;20.75;;;11.73;;
22648;SDS011;11491;41.942;24.220;2022-12-08T02:54:54;69.97;;;45.35;;
22648;SDS011;11491;41.942;24.220;2022-12-08T02:57:27;26.08;;;13.55;;
22648;SDS011;11491;41.942;24.220;2022-12-08T03:00:06;20.25;;;12.75;;
22648;SDS011;11491;41.942;24.220;2022-12-08T03:02:39;13.43;;;8.10;;
22648;SDS011;11491;41.942;24.220;2022-12-08T03:05:16;18.10;;;12.05;;
22648;SDS011;11491;41.942;24.220;2022-12-08T03:07:57;28.73;;;19.25;;
22648;SDS011;11491;41.942;24.220;2022-12-08T03:10:28;64.30;;;40.85;;
22648;SDS011;11491;41.942;24.220;2022-12-08T03:13:00;52.15;;;33.20;;
22648;SDS011;11491;41.942;24.220;2022-12-08T03:15:30;50.83;;;30.13;;
22648;SDS011;11491;41.942;24.220;2022-12-08T03:18:00;74.38;;;37.70;;
22648;SDS011;11491;41.942;24.220;2022-12-08T03:20:31;89.88;;;37.40;;
22648;SDS011;11491;41.942;24.220;2022-12-08T03:23:00;55.22;;;27.45;;
22648;SDS011;11491;41.942;24.220;2022-12-08T03:25:31;54.88;;;26.13;;
22648;SDS011;11491;41.942;24.220;2022-12-08T03:28:02;41.55;;;27.00;;
22648;SDS011;11491;41.942;24.220;2022-12-08T03:30:33;50.72;;;32.03;;
22648;SDS011;11491;41.942;24.220;2022-12-08T03:33:02;46.83;;;27.85;;
22648;SDS011;11491;41.942;24.220;2022-12-08T03:35:34;51.88;;;33.35;;
22648;SDS011;11491;41.942;24.220;2022-12-08T03:38:06;40.10;;;25.27;;
22648;SDS011;11491;41.942;24.220;2022-12-08T03:40:35;61.90;;;44.95;;
22648;SDS011;11491;41.942;24.220;2022-12-08T03:43:03;59.90;;;43.08;;
22648;SDS011;11491;41.942;24.220;2022-12-08T03:45:30;22.83;;;15.40;;
22648;SDS011;11491;41.942;24.220;2022-12-08T03:47:57;35.33;;;17.17;;
22648;SDS011;11491;41.942;24.220;2022-12-08T03:50:23;44.33;;;21.65;;
22648;SDS011;11491;41.942;24.220;2022-12-08T03:52:52;34.28;;;18.08;;
22648;SDS011;11491;41.942;24.220;2022-12-08T03:55:18;39.85;;;21.00;;
22648;SDS011;11491;41.942;24.220;2022-12-08T03:57:46;46.65;;;26.70;;
22648;SDS011;11491;41.942;24.220;2022-12-08T04:00:14;36.78;;;22.95;;
22648;SDS011;11491;41.942;24.220;2022-12-08T04:02:41;37.35;;;23.40;;
22648;SDS011;11491;41.942;24.220;2022-12-08T04:05:08;35.42;;;20.42;;
22648;SDS011;11491;41.942;24.220;2022-12-08T04:07:35;50.00;;;31.25;;
22648;SDS011;11491;41.942;24.220;2022-12-08T04:10:03;42.95;;;26.05;;
22648;SDS011;11491;41.942;24.220;2022-12-08T04:12:30;53.30;;;30.88;;
22648;SDS011;11491;41.942;24.220;2022-12-08T04:14:57;55.67;;;35.15;;
22648;SDS011;11491;41.942;24.220;2022-12-08T04:17:24;54.00;;;33.25;;
22648;SDS011;11491;41.942;24.220;2022-12-08T04:19:51;55.58;;;28.52;;
22648;SDS011;11491;41.942;24.220;2022-12-08T04:22:17;55.13;;;31.58;;
22648;SDS011;11491;41.942;24.220;2022-12-08T04:24:44;40.28;;;24.67;;
22648;SDS011;11491;41.942;24.220;2022-12-08T04:27:12;37.40;;;25.13;;
22648;SDS011;11491;41.942;24.220;2022-12-08T04:29:39;53.22;;;35.45;;
22648;SDS011;11491;41.942;24.220;2022-12-08T04:32:05;67.55;;;44.13;;
22648;SDS011;11491;41.942;24.220;2022-12-08T04:34:33;58.78;;;38.13;;
22648;SDS011;11491;41.942;24.220;2022-12-08T04:36:59;53.55;;;34.75;;
22648;SDS011;11491;41.942;24.220;2022-12-08T04:39:26;37.03;;;24.13;;
22648;SDS011;11491;41.942;24.220;2022-12-08T04:41:53;46.17;;;30.73;;
22648;SDS011;11491;41.942;24.220;2022-12-08T04:44:21;117.60;;;76.70;;
22648;SDS011;11491;41.942;24.220;2022-12-08T04:46:48;107.35;;;73.97;;
22648;SDS011;11491;41.942;24.220;2022-12-08T04:49:15;66.78;;;41.63;;
22648;SDS011;11491;41.942;24.220;2022-12-08T04:51:41;39.47;;;27.00;;
22648;SDS011;11491;41.942;24.220;2022-12-08T04:54:08;41.55;;;30.38;;
22648;SDS011;11491;41.942;24.220;2022-12-08T04:56:35;71.35;;;52.45;;
22648;SDS011;11491;41.942;24.220;2022-12-08T04:59:02;94.05;;;69.88;;
22648;SDS011;11491;41.942;24.220;2022-12-08T05:01:30;61.70;;;45.35;;
22648;SDS011;11491;41.942;24.220;2022-12-08T05:03:57;64.63;;;50.65;;
22648;SDS011;11491;41.942;24.220;2022-12-08T05:06:24;76.43;;;52.45;;
22648;SDS011;11491;41.942;24.220;2022-12-08T05:08:50;35.38;;;25.63;;
22648;SDS011;11491;41.942;24.220;2022-12-08T05:11:17;93.88;;;59.60;;
22648;SDS011;11491;41.942;24.220;2022-12-08T05:13:44;82.30;;;59.72;;
22648;SDS011;11491;41.942;24.220;2022-12-08T05:16:11;94.43;;;66.32;;
22648;SDS011;11491;41.942;24.220;2022-12-08T05:18:41;64.00;;;47.03;;
22648;SDS011;11491;41.942;24.220;2022-12-08T05:21:08;83.22;;;57.30;;
22648;SDS011;11491;41.942;24.220;2022-12-08T05:23:36;106.05;;;75.65;;
22648;SDS011;11491;41.942;24.220;2022-12-08T05:26:02;101.32;;;77.22;;
22648;SDS011;11491;41.942;24.220;2022-12-08T05:28:29;113.18;;;84.55;;
22648;SDS011;11491;41.942;24.220;2022-12-08T05:30:56;116.15;;;84.68;;
22648;SDS011;11491;41.942;24.220;2022-12-08T05:33:23;126.22;;;95.68;;
22648;SDS011;11491;41.942;24.220;2022-12-08T05:35:51;117.10;;;86.38;;
22648;SDS011;11491;41.942;24.220;2022-12-08T05:38:18;106.38;;;77.05;;
22648;SDS011;11491;41.942;24.220;2022-12-08T05:40:44;64.10;;;47.60;;
22648;SDS011;11491;41.942;24.220;2022-12-08T05:43:11;76.32;;;40.67;;
22648;SDS011;11491;41.942;24.220;2022-12-08T05:45:38;63.85;;;46.40;;
22648;SDS011;11491;41.942;24.220;2022-12-08T05:48:04;91.38;;;65.00;;
22648;SDS011;11491;41.942;24.220;2022-12-08T05:50:31;188.15;;;128.45;;
22648;SDS011;11491;41.942;24.220;2022-12-08T05:52:59;161.25;;;112.32;;
22648;SDS011;11491;41.942;24.220;2022-12-08T05:55:26;203.95;;;133.18;;
22648;SDS011;11491;41.942;24.220;2022-12-08T05:57:53;144.40;;;96.97;;
22648;SDS011;11491;41.942;24.220;2022-12-08T06:00:20;109.20;;;76.90;;
22648;SDS011;11491;41.942;24.220;2022-12-08T06:02:47;90.75;;;59.45;;
22648;SDS011;11491;41.942;24.220;2022-12-08T06:05:13;110.00;;;80.97;;
22648;SDS011;11491;41.942;24.220;2022-12-08T06:07:40;99.40;;;69.28;;
22648;SDS011;11491;41.942;24.220;2022-12-08T06:10:09;115.25;;;83.53;;
22648;SDS011;11491;41.942;24.220;2022-12-08T06:12:36;163.38;;;113.88;;
22648;SDS011;11491;41.942;24.220;2022-12-08T06:15:04;167.23;;;117.78;;
22648;SDS011;11491;41.942;24.220;2022-12-08T06:17:32;133.88;;;91.43;;
22648;SDS011;11491;41.942;24.220;2022-12-08T06:19:58;155.55;;;106.95;;
22648;SDS011;11491;41.942;24.220;2022-12-08T06:22:25;208.98;;;152.38;;
22648;SDS011;11491;41.942;24.220;2022-12-08T06:24:52;194.93;;;133.70;;
22648;SDS011;11491;41.942;24.220;2022-12-08T06:27:20;217.23;;;148.20;;
22648;SDS011;11491;41.942;24.220;2022-12-08T06:29:47;278.42;;;200.32;;
22648;SDS011;11491;41.942;24.220;2022-12-08T06:32:13;310.08;;;221.40;;
22648;SDS011;11491;41.942;24.220;2022-12-08T06:34:40;299.85;;;224.13;;
22648;SDS011;11491;41.942;24.220;2022-12-08T06:37:07;275.92;;;205.85;;
22648;SDS011;11491;41.942;24.220;2022-12-08T06:39:33;279.27;;;204.55;;
22648;SDS011;11491;41.942;24.220;2022-12-08T06:42:00;254.98;;;185.45;;
22648;SDS011;11491;41.942;24.220;2022-12-08T06:44:46;258.88;;;192.70;;
22648;SDS011;11491;41.942;24.220;2022-12-08T06:47:13;264.08;;;204.30;;
22648;SDS011;11491;41.942;24.220;2022-12-08T06:49:40;205.23;;;154.82;;
22648;SDS011;11491;41.942;24.220;2022-12-08T06:52:06;211.05;;;151.25;;
22648;SDS011;11491;41.942;24.220;2022-12-08T06:54:33;257.65;;;210.55;;
22648;SDS011;11491;41.942;24.220;2022-12-08T06:57:00;231.30;;;175.10;;
22648;SDS011;11491;41.942;24.220;2022-12-08T06:59:27;226.65;;;170.15;;
22648;SDS011;11491;41.942;24.220;2022-12-08T07:01:55;205.77;;;152.02;;
22648;SDS011;11491;41.942;24.220;2022-12-08T07:04:22;201.27;;;145.45;;
22648;SDS011;11491;41.942;24.220;2022-12-08T07:06:49;224.32;;;154.35;;
22648;SDS011;11491;41.942;24.220;2022-12-08T07:09:15;221.93;;;160.40;;
22648;SDS011;11491;41.942;24.220;2022-12-08T07:11:42;205.57;;;145.73;;
22648;SDS011;11491;41.942;24.220;2022-12-08T07:14:09;137.05;;;100.18;;
22648;SDS011;11491;41.942;24.220;2022-12-08T07:16:36;125.88;;;91.95;;
22648;SDS011;11491;41.942;24.220;2022-12-08T07:19:04;95.80;;;66.05;;
22648;SDS011;11491;41.942;24.220;2022-12-08T07:21:31;46.53;;;31.55;;
22648;SDS011;11491;41.942;24.220;2022-12-08T07:23:58;42.00;;;28.13;;
22648;SDS011;11491;41.942;24.220;2022-12-08T07:26:25;36.25;;;25.15;;
22648;SDS011;11491;41.942;24.220;2022-12-08T07:28:52;99.03;;;67.68;;
22648;SDS011;11491;41.942;24.220;2022-12-08T07:31:20;77.10;;;54.83;;
22648;SDS011;11491;41.942;24.220;2022-12-08T07:33:48;80.78;;;62.28;;
22648;SDS011;11491;41.942;24.220;2022-12-08T07:36:17;61.90;;;48.15;;
22648;SDS011;11491;41.942;24.220;2022-12-08T07:38:43;48.38;;;38.45;;
22648;SDS011;11491;41.942;24.220;2022-12-08T07:41:11;29.17;;;20.65;;
22648;SDS011;11491;41.942;24.220;2022-12-08T07:43:44;29.95;;;20.65;;
22648;SDS011;11491;41.942;24.220;2022-12-08T07:46:13;17.20;;;10.07;;
22648;SDS011;11491;41.942;24.220;2022-12-08T07:49:11;12.35;;;7.85;;
22648;SDS011;11491;41.942;24.220;2022-12-08T07:51:46;21.52;;;12.07;;
22648;SDS011;11491;41.942;24.220;2022-12-08T07:54:28;16.35;;;10.43;;
22648;SDS011;11491;41.942;24.220;2022-12-08T07:56:57;29.83;;;18.33;;
22648;SDS011;11491;41.942;24.220;2022-12-08T07:59:41;19.90;;;13.25;;
22648;SDS011;11491;41.942;24.220;2022-12-08T08:02:16;11.30;;;7.13;;
22648;SDS011;11491;41.942;24.220;2022-12-08T08:04:50;12.32;;;6.72;;
22648;SDS011;11491;41.942;24.220;2022-12-08T08:07:51;12.57;;;7.15;;
22648;SDS011;11491;41.942;24.220;2022-12-08T08:10:25;11.05;;;7.57;;
22648;SDS011;11491;41.942;24.220;2022-12-08T08:13:00;12.90;;;6.53;;
22648;SDS011;11491;41.942;24.220;2022-12-08T08:15:43;4.07;;;1.80;;
22648;SDS011;11491;41.942;24.220;2022-12-08T08:18:34;7.47;;;5.82;;
22648;SDS011;11491;41.942;24.220;2022-12-08T08:21:07;6.38;;;3.90;;
22648;SDS011;11491;41.942;24.220;2022-12-08T08:24:01;17.02;;;14.68;;
22648;SDS011;11491;41.942;24.220;2022-12-08T08:26:39;15.38;;;5.60;;
22648;SDS011;11491;41.942;24.220;2022-12-08T08:29:20;15.35;;;9.63;;
22648;SDS011;11491;41.942;24.220;2022-12-08T08:31:49;19.67;;;11.27;;
22648;SDS011;11491;41.942;24.220;2022-12-08T08:34:20;24.55;;;10.88;;
22648;SDS011;11491;41.942;24.220;2022-12-08T08:37:01;5.43;;;2.97;;
22648;SDS011;11491;41.942;24.220;2022-12-08T08:42:21;16.15;;;7.30;;
22648;SDS011;11491;41.942;24.220;2022-12-08T08:44:52;11.82;;;7.40;;
22648;SDS011;11491;41.942;24.220;2022-12-08T08:47:19;12.35;;;6.78;;
22648;SDS011;11491;41.942;24.220;2022-12-08T08:49:51;10.43;;;6.35;;
22648;SDS011;11491;41.942;24.220;2022-12-08T08:52:18;7.53;;;3.45;;
22648;SDS011;11491;41.942;24.220;2022-12-08T08:57:42;14.02;;;8.13;;
22648;SDS011;11491;41.942;24.220;2022-12-08T09:00:36;19.73;;;12.27;;
22648;SDS011;11491;41.942;24.220;2022-12-08T09:03:05;9.48;;;3.60;;
22648;SDS011;11491;41.942;24.220;2022-12-08T09:05:53;16.70;;;8.40;;
22648;SDS011;11491;41.942;24.220;2022-12-08T09:08:55;11.48;;;8.65;;
22648;SDS011;11491;41.942;24.220;2022-12-08T09:14:52;18.00;;;9.27;;
22648;SDS011;11491;41.942;24.220;2022-12-08T09:20:37;13.05;;;5.72;;
22648;SDS011;11491;41.942;24.220;2022-12-08T09:44:11;8.00;;;3.67;;
22648;SDS011;11491;41.942;24.220;2022-12-08T09:47:27;7.65;;;3.17;;
22648;SDS011;11491;41.942;24.220;2022-12-08T09:50:26;6.55;;;3.60;;
22648;SDS011;11491;41.942;24.220;2022-12-08T09:59:31;9.48;;;4.82;;
22648;SDS011;11491;41.942;24.220;2022-12-08T10:07:54;18.92;;;9.18;;
22648;SDS011;11491;41.942;24.220;2022-12-08T10:36:44;11.50;;;5.32;;
22648;SDS011;11491;41.942;24.220;2022-12-08T10:41:49;8.50;;;4.85;;
22648;SDS011;11491;41.942;24.220;2022-12-08T10:45:12;9.00;;;4.65;;
22648;SDS011;11491;41.942;24.220;2022-12-08T10:47:57;12.63;;;4.70;;
22648;SDS011;11491;41.942;24.220;2022-12-08T10:50:40;13.10;;;5.28;;
22648;SDS011;11491;41.942;24.220;2022-12-08T10:53:34;8.60;;;4.47;;
22648;SDS011;11491;41.942;24.220;2022-12-08T10:56:13;12.45;;;4.35;;
22648;SDS011;11491;41.942;24.220;2022-12-08T10:59:09;13.13;;;8.32;;
22648;SDS011;11491;41.942;24.220;2022-12-08T11:01:39;10.95;;;5.75;;
22648;SDS011;11491;41.942;24.220;2022-12-08T11:04:11;9.75;;;5.63;;
22648;SDS011;11491;41.942;24.220;2022-12-08T11:06:40;9.10;;;3.27;;
22648;SDS011;11491;41.942;24.220;2022-12-08T11:09:23;8.57;;;2.65;;
22648;SDS011;11491;41.942;24.220;2022-12-08T11:12:07;27.70;;;19.17;;
22648;SDS011;11491;41.942;24.220;2022-12-08T11:14:45;10.45;;;5.13;;
22648;SDS011;11491;41.942;24.220;2022-12-08T11:17:15;11.25;;;4.57;;
22648;SDS011;11491;41.942;24.220;2022-12-08T11:19:43;9.38;;;3.30;;
22648;SDS011;11491;41.942;24.220;2022-12-08T11:22:21;15.68;;;8.75;;
22648;SDS011;11491;41.942;24.220;2022-12-08T11:28:00;44.25;;;29.95;;
22648;SDS011;11491;41.942;24.220;2022-12-08T11:30:58;50.85;;;32.05;;
22648;SDS011;11491;41.942;24.220;2022-12-08T11:33:30;45.92;;;29.20;;
22648;SDS011;11491;41.942;24.220;2022-12-08T11:35:59;21.33;;;11.63;;
22648;SDS011;11491;41.942;24.220;2022-12-08T11:38:29;17.38;;;10.93;;
22648;SDS011;11491;41.942;24.220;2022-12-08T11:57:40;27.02;;;15.88;;
22648;SDS011;11491;41.942;24.220;2022-12-08T12:03:07;27.58;;;13.85;;
22648;SDS011;11491;41.942;24.220;2022-12-08T12:06:21;34.58;;;18.33;;
22648;SDS011;11491;41.942;24.220;2022-12-08T12:09:09;10.82;;;4.32;;
22648;SDS011;11491;41.942;24.220;2022-12-08T12:11:44;14.73;;;6.50;;
22648;SDS011;11491;41.942;24.220;2022-12-08T12:24:17;11.45;;;3.75;;
22648;SDS011;11491;41.942;24.220;2022-12-08T12:29:54;15.02;;;5.03;;
22648;SDS011;11491;41.942;24.220;2022-12-08T12:32:59;25.65;;;12.70;;
22648;SDS011;11491;41.942;24.220;2022-12-08T12:36:03;25.30;;;9.27;;
22648;SDS011;11491;41.942;24.220;2022-12-08T12:38:52;26.33;;;10.30;;
22648;SDS011;11491;41.942;24.220;2022-12-08T12:42:03;12.15;;;5.30;;
22648;SDS011;11491;41.942;24.220;2022-12-08T12:45:10;14.10;;;5.53;;
22648;SDS011;11491;41.942;24.220;2022-12-08T12:48:19;24.33;;;10.27;;
22648;SDS011;11491;41.942;24.220;2022-12-08T12:53:48;20.73;;;7.90;;
22648;SDS011;11491;41.942;24.220;2022-12-08T12:56:46;24.80;;;9.73;;
22648;SDS011;11491;41.942;24.220;2022-12-08T13:06:08;42.45;;;28.42;;
22648;SDS011;11491;41.942;24.220;2022-12-08T13:08:39;38.13;;;22.02;;
22648;SDS011;11491;41.942;24.220;2022-12-08T13:11:15;29.40;;;18.75;;
22648;SDS011;11491;41.942;24.220;2022-12-08T13:13:54;36.33;;;12.85;;
22648;SDS011;11491;41.942;24.220;2022-12-08T13:16:30;38.83;;;22.15;;
22648;SDS011;11491;41.942;24.220;2022-12-08T13:18:59;22.38;;;12.20;;
22648;SDS011;11491;41.942;24.220;2022-12-08T13:21:52;16.63;;;6.75;;
22648;SDS011;11491;41.942;24.220;2022-12-08T13:24:34;22.33;;;9.00;;
22648;SDS011;11491;41.942;24.220;2022-12-08T13:27:32;20.88;;;11.63;;
22648;SDS011;11491;41.942;24.220;2022-12-08T13:36:04;23.15;;;11.48;;
22648;SDS011;11491;41.942;24.220;2022-12-08T13:38:38;43.55;;;23.60;;
22648;SDS011;11491;41.942;24.220;2022-12-08T13:41:34;51.38;;;30.73;;
22648;SDS011;11491;41.942;24.220;2022-12-08T13:44:11;23.65;;;12.85;;
22648;SDS011;11491;41.942;24.220;2022-12-08T14:38:24;42.55;;;25.70;;
22648;SDS011;11491;41.942;24.220;2022-12-08T14:41:03;49.67;;;29.95;;
22648;SDS011;11491;41.942;24.220;2022-12-08T14:43:31;344.42;;;216.70;;
22648;SDS011;11491;41.942;24.220;2022-12-08T14:46:17;40.53;;;25.58;;
22648;SDS011;11491;41.942;24.220;2022-12-08T15:14:54;45.20;;;23.33;;
22648;SDS011;11491;41.942;24.220;2022-12-08T15:17:39;28.67;;;15.85;;
22648;SDS011;11491;41.942;24.220;2022-12-08T15:23:29;76.40;;;38.70;;
22648;SDS011;11491;41.942;24.220;2022-12-08T15:29:25;48.63;;;37.75;;
22648;SDS011;11491;41.942;24.220;2022-12-08T15:35:02;46.92;;;23.48;;
22648;SDS011;11491;41.942;24.220;2022-12-08T15:37:44;59.67;;;27.67;;
22648;SDS011;11491;41.942;24.220;2022-12-08T15:40:37;138.32;;;93.75;;
22648;SDS011;11491;41.942;24.220;2022-12-08T15:43:20;99.77;;;60.90;;
22648;SDS011;11491;41.942;24.220;2022-12-08T15:46:18;213.18;;;104.10;;
22648;SDS011;11491;41.942;24.220;2022-12-08T15:55:03;68.57;;;36.97;;
22648;SDS011;11491;41.942;24.220;2022-12-08T15:58:03;86.18;;;45.00;;
22648;SDS011;11491;41.942;24.220;2022-12-08T16:01:05;50.88;;;24.55;;
22648;SDS011;11491;41.942;24.220;2022-12-08T16:04:40;62.78;;;33.85;;
22648;SDS011;11491;41.942;24.220;2022-12-08T16:26:58;38.47;;;17.60;;
22648;SDS011;11491;41.942;24.220;2022-12-08T16:29:48;19.25;;;6.75;;
22648;SDS011;11491;41.942;24.220;2022-12-08T16:32:42;13.27;;;6.85;;
22648;SDS011;11491;41.942;24.220;2022-12-08T16:35:33;33.55;;;15.13;;
22648;SDS011;11491;41.942;24.220;2022-12-08T16:38:15;18.83;;;9.00;;
22648;SDS011;11491;41.942;24.220;2022-12-08T16:51:58;19.73;;;7.25;;
22648;SDS011;11491;41.942;24.220;2022-12-08T16:54:27;17.02;;;6.75;;
22648;SDS011;11491;41.942;24.220;2022-12-08T16:56:57;30.33;;;12.18;;
22648;SDS011;11491;41.942;24.220;2022-12-08T16:59:49;17.52;;;4.85;;
22648;SDS011;11491;41.942;24.220;2022-12-08T18:15:29;41.40;;;27.15;;
22648;SDS011;11491;41.942;24.220;2022-12-08T19:11:56;10.63;;;5.90;;
22648;SDS011;11491;41.942;24.220;2022-12-08T19:17:46;11.75;;;5.03;;
22648;SDS011;11491;41.942;24.220;2022-12-08T19:24:14;19.23;;;4.72;;
22648;SDS011;11491;41.942;24.220;2022-12-08T19:27:02;15.07;;;3.75;;
22648;SDS011;11491;41.942;24.220;2022-12-08T19:29:30;16.38;;;4.68;;
22648;SDS011;11491;41.942;24.220;2022-12-08T19:34:48;29.33;;;7.85;;
22648;SDS011;11491;41.942;24.220;2022-12-08T19:37:15;18.23;;;4.93;;
22648;SDS011;11491;41.942;24.220;2022-12-08T19:40:29;11.77;;;4.10;;
22648;SDS011;11491;41.942;24.220;2022-12-08T19:43:16;25.23;;;5.65;;
22648;SDS011;11491;41.942;24.220;2022-12-08T19:46:02;14.57;;;4.55;;
22648;SDS011;11491;41.942;24.220;2022-12-08T19:48:29;23.98;;;5.30;;
22648;SDS011;11491;41.942;24.220;2022-12-08T19:53:30;23.10;;;5.45;;
22648;SDS011;11491;41.942;24.220;2022-12-08T19:57:04;19.92;;;5.28;;
22648;SDS011;11491;41.942;24.220;2022-12-08T20:02:19;15.90;;;4.53;;
22648;SDS011;11491;41.942;24.220;2022-12-08T20:04:46;29.15;;;6.55;;
22648;SDS011;11491;41.942;24.220;2022-12-08T20:07:14;21.30;;;6.65;;
22648;SDS011;11491;41.942;24.220;2022-12-08T20:09:41;25.80;;;6.38;;
22648;SDS011;11491;41.942;24.220;2022-12-08T20:12:08;19.17;;;7.68;;
22648;SDS011;11491;41.942;24.220;2022-12-08T20:14:39;19.67;;;6.35;;
22648;SDS011;11491;41.942;24.220;2022-12-08T20:17:08;24.85;;;8.30;;
22648;SDS011;11491;41.942;24.220;2022-12-08T20:19:38;24.35;;;9.93;;
22648;SDS011;11491;41.942;24.220;2022-12-08T20:22:07;32.30;;;9.77;;
22648;SDS011;11491;41.942;24.220;2022-12-08T20:24:35;51.58;;;17.45;;
22648;SDS011;11491;41.942;24.220;2022-12-08T20:27:03;33.08;;;12.32;;
22648;SDS011;11491;41.942;24.220;2022-12-08T20:29:48;22.92;;;7.40;;
22648;SDS011;11491;41.942;24.220;2022-12-08T20:32:16;30.52;;;11.27;;
22648;SDS011;11491;41.942;24.220;2022-12-08T20:34:45;34.28;;;9.27;;
22648;SDS011;11491;41.942;24.220;2022-12-08T20:37:33;32.47;;;10.52;;
22648;SDS011;11491;41.942;24.220;2022-12-08T20:40:00;30.23;;;7.45;;
22648;SDS011;11491;41.942;24.220;2022-12-08T20:42:30;21.33;;;6.07;;
22648;SDS011;11491;41.942;24.220;2022-12-08T20:45:15;27.70;;;6.70;;
22648;SDS011;11491;41.942;24.220;2022-12-08T20:48:24;26.85;;;5.97;;
22648;SDS011;11491;41.942;24.220;2022-12-08T20:56:22;26.25;;;6.43;;
22648;SDS011;11491;41.942;24.220;2022-12-08T20:58:50;27.17;;;7.97;;
22648;SDS011;11491;41.942;24.220;2022-12-08T21:01:18;22.85;;;7.15;;
22648;SDS011;11491;41.942;24.220;2022-12-08T21:03:47;28.70;;;7.72;;
22648;SDS011;11491;41.942;24.220;2022-12-08T21:06:18;36.13;;;7.93;;
22648;SDS011;11491;41.942;24.220;2022-12-08T21:08:46;33.75;;;7.03;;
22648;SDS011;11491;41.942;24.220;2022-12-08T21:11:13;18.02;;;6.30;;
22648;SDS011;11491;41.942;24.220;2022-12-08T21:13:42;35.10;;;5.70;;
22648;SDS011;11491;41.942;24.220;2022-12-08T21:16:11;21.23;;;4.28;;
22648;SDS011;11491;41.942;24.220;2022-12-08T21:18:39;31.60;;;6.25;;
22648;SDS011;11491;41.942;24.220;2022-12-08T21:21:07;23.20;;;4.93;;
22648;SDS011;11491;41.942;24.220;2022-12-08T21:23:35;28.45;;;4.15;;
22648;SDS011;11491;41.942;24.220;2022-12-08T21:26:07;30.55;;;7.63;;
22648;SDS011;11491;41.942;24.220;2022-12-08T21:28:37;25.63;;;5.60;;
22648;SDS011;11491;41.942;24.220;2022-12-08T21:31:09;30.25;;;6.68;;